Time;durP1;ratioP1;P1;durP2;ratioP2;P2;SDS_P1;SDS_P2;PMS_P1;PMS_P2;Temp;Humidity;BMP_temperature;BMP_pressure;BME280_temperature;BME280_humidity;BME280_pressure;Samples;Min_cycle;Max_cycle;Signal;HPM_P1;HPM_P2
2022/11/01 17:41:13;;;;;;;20.90;10.88;;;;;;;12.66;84.84;98573.66;6115448;22;1255467;-65
2022/11/01 17:43:39;;;;;;;23.48;12.52;;;;;;;12.64;84.02;98586.09;6158650;23;20020;-64
2022/11/01 17:46:09;;;;;;;24.00;14.02;;;;;;;12.58;84.31;98588.19;6185351;23;20004;-65
2022/11/01 17:48:36;;;;;;;26.48;13.90;;;;;;;12.58;84.72;98593.47;6160212;23;20023;-65
2022/11/01 17:51:01;;;;;;;21.33;13.73;;;;;;;12.58;85.27;98588.19;6185445;23;20478;-65
2022/11/01 17:53:26;;;;;;;22.63;12.27;;;;;;;12.59;84.69;98589.91;6184190;23;20011;-65
2022/11/01 17:55:56;;;;;;;23.58;12.10;;;;;;;12.58;84.64;98595.25;6184391;23;20071;-65
2022/11/01 17:58:21;;;;;;;22.00;13.80;;;;;;;12.59;84.70;98591.66;6183920;23;20054;-64
2022/11/01 18:00:47;;;;;;;24.83;16.48;;;;;;;12.54;85.21;98594.63;6185104;23;20076;-64
2022/11/01 18:03:13;;;;;;;23.98;14.60;;;;;;;12.48;84.86;98597.69;6184725;23;20079;-68
2022/11/01 18:05:39;;;;;;;20.98;11.60;;;;;;;12.45;84.80;98603.16;6184627;23;20001;-64
2022/11/01 18:08:15;;;;;;;17.65;9.75;;;;;;;12.42;84.94;98603.41;6182823;23;20079;-66
2022/11/01 18:10:48;;;;;;;15.73;9.25;;;;;;;12.39;84.89;98606.25;6183518;23;20005;-66
2022/11/01 18:13:27;;;;;;;17.80;9.77;;;;;;;12.34;85.81;98600.44;6182174;23;20004;-64
2022/11/01 18:16:08;;;;;;;22.00;15.35;;;;;;;12.35;85.88;98607.38;6183639;23;20031;-66
2022/11/01 18:18:46;;;;;;;26.60;17.67;;;;;;;12.34;85.66;98608.34;6185045;23;20501;-64
2022/11/01 18:21:18;;;;;;;23.20;14.45;;;;;;;12.34;85.73;98610.97;6158780;23;20008;-65
2022/11/01 18:23:45;;;;;;;29.90;19.10;;;;;;;12.34;85.76;98609.16;6182862;23;20004;-65
2022/11/01 18:26:21;;;;;;;19.60;12.77;;;;;;;12.35;85.69;98602.97;6134614;23;20428;-64
2022/11/01 18:28:47;;;;;;;20.27;12.23;;;;;;;12.34;85.96;98608.34;6182665;23;20008;-64
2022/11/01 18:31:22;;;;;;;23.75;12.88;;;;;;;12.33;86.44;98602.22;6183375;23;20009;-65
2022/11/01 18:34:32;;;;;;;19.80;11.88;;;;;;;12.32;86.72;98607.63;6182786;23;20024;-64
2022/11/01 18:37:07;;;;;;;19.70;10.10;;;;;;;12.28;86.67;98600.88;6064930;23;20011;-64
2022/11/01 18:39:38;;;;;;;19.23;11.68;;;;;;;12.26;86.89;98608.88;6017908;23;20007;-65
2022/11/01 18:42:07;;;;;;;18.02;10.80;;;;;;;12.26;87.08;98603.59;6017326;23;20011;-64
2022/11/01 18:44:33;;;;;;;17.65;9.60;;;;;;;12.25;87.30;98595.81;6014718;23;20006;-65
2022/11/01 18:47:06;;;;;;;21.05;11.90;;;;;;;12.24;86.71;98600.22;6064853;23;20007;-66
2022/11/01 18:49:32;;;;;;;19.38;12.07;;;;;;;12.21;86.79;98595.19;6039792;23;20011;-65
2022/11/01 18:51:57;;;;;;;22.52;12.80;;;;;;;12.18;87.08;98597.19;6064585;23;20032;-65
2022/11/01 18:54:26;;;;;;;23.92;13.23;;;;;;;12.16;87.06;98596.47;6039096;23;20089;-66
2022/11/01 18:56:55;;;;;;;13.52;6.53;;;;;;;12.21;90.98;98608.34;6040494;23;20010;-65
2022/11/01 18:59:31;;;;;;;24.42;13.88;;;;;;;12.20;88.21;98603.19;6064231;23;20030;-66
2022/11/01 19:02:08;;;;;;;28.30;16.55;;;;;;;12.15;87.44;98600.03;6038753;23;20011;-66
2022/11/01 19:04:35;;;;;;;26.48;16.25;;;;;;;12.13;87.75;98597.50;6014119;23;20039;-64
2022/11/01 19:07:07;;;;;;;26.65;16.00;;;;;;;12.09;87.45;98602.13;6006236;23;20094;-65
2022/11/01 19:09:34;;;;;;;24.27;14.25;;;;;;;12.06;87.47;98601.50;6017531;23;20071;-65
2022/11/01 19:12:01;;;;;;;25.65;15.38;;;;;;;12.03;87.23;98601.72;6148372;23;20005;-65
2022/11/01 19:14:26;;;;;;;27.52;16.90;;;;;;;11.98;87.36;98604.66;6180886;23;20005;-65
2022/11/01 19:16:52;;;;;;;29.30;15.85;;;;;;;11.96;87.64;98606.53;6157004;23;20005;-67
2022/11/01 19:19:17;;;;;;;40.85;22.00;;;;;;;11.83;87.59;98589.88;6182418;23;20083;-65
2022/11/01 19:21:43;;;;;;;49.67;26.98;;;;;;;11.90;87.06;98606.94;6181535;23;20017;-64
2022/11/01 19:24:35;;;;;;;30.85;18.95;;;;;;;11.90;87.05;98612.22;6182899;23;20036;-65
2022/11/01 19:27:01;;;;;;;28.05;14.57;;;;;;;11.89;87.60;98607.91;6181708;23;20005;-66
2022/11/01 19:29:28;;;;;;;25.45;13.32;;;;;;;11.88;88.05;98606.22;6181703;23;20011;-66
2022/11/01 19:31:57;;;;;;;28.27;14.82;;;;;;;11.85;88.19;98607.28;6181728;23;20009;-65
2022/11/01 19:34:31;;;;;;;30.77;16.67;;;;;;;11.85;87.85;98606.44;6179012;23;20564;-65
2022/11/01 19:36:56;;;;;;;30.77;16.08;;;;;;;11.83;87.69;98603.03;6181451;23;19997;-65
2022/11/01 19:39:23;;;;;;;31.50;15.52;;;;;;;11.79;87.66;98599.75;6155757;23;20011;-65
2022/11/01 19:41:49;;;;;;;25.38;14.30;;;;;;;11.76;88.09;98593.88;6181635;23;20001;-66
2022/11/01 19:44:18;;;;;;;26.90;14.98;;;;;;;11.72;87.50;98601.13;6181011;23;20040;-65
2022/11/01 19:46:44;;;;;;;25.25;13.90;;;;;;;11.70;87.72;98604.78;6180757;23;20080;-67
2022/11/01 19:49:18;;;;;;;22.90;15.07;;;;;;;11.64;87.90;98601.63;6181810;23;20136;-65
2022/11/01 19:51:44;;;;;;;27.63;16.30;;;;;;;11.61;87.76;98609.72;6181596;23;20005;-68
2022/11/01 19:54:10;;;;;;;22.65;14.40;;;;;;;11.58;88.03;98609.09;6181912;23;20088;-65
2022/11/01 19:56:35;;;;;;;25.17;14.95;;;;;;;11.54;87.79;98618.97;6182255;23;19997;-65
2022/11/01 19:59:03;;;;;;;27.05;14.98;;;;;;;11.50;87.69;98616.63;6183009;23;20064;-66
2022/11/01 20:01:41;;;;;;;26.00;13.55;;;;;;;11.49;87.96;98622.81;6183184;23;20056;-68
2022/11/01 20:04:13;;;;;;;23.40;14.45;;;;;;;11.40;87.55;98621.66;6182142;23;20031;-65
2022/11/01 20:06:42;;;;;;;;;;;;;;;11.37;87.66;98624.47;6182593;23;20001;-65
2022/11/01 20:09:29;;;;;;;27.92;15.93;;;;;;;11.30;87.44;98621.41;6180863;23;19947;-68
2022/11/01 20:11:55;;;;;;;25.90;14.50;;;;;;;11.27;87.75;98623.38;6182167;23;20001;-65
2022/11/01 20:14:21;;;;;;;27.67;14.35;;;;;;;11.19;87.53;98626.50;6178413;23;20095;-65
2022/11/01 20:16:46;;;;;;;23.52;13.57;;;;;;;11.14;88.58;98632.03;6182960;23;20012;-65
2022/11/01 20:19:11;;;;;;;23.15;13.07;;;;;;;11.10;88.32;98630.56;6181353;23;20004;-65
2022/11/01 20:21:37;;;;;;;22.25;11.25;;;;;;;11.07;88.21;98632.53;6183166;23;20083;-65
2022/11/01 20:24:02;;;;;;;23.38;11.25;;;;;;;11.04;88.15;98638.81;6180953;23;20012;-66
2022/11/01 20:26:28;;;;;;;21.40;12.70;;;;;;;11.00;88.31;98637.31;6154878;23;20032;-65
2022/11/01 20:28:53;;;;;;;22.25;12.05;;;;;;;10.96;88.60;98641.09;6182628;23;20012;-66
2022/11/01 20:31:19;;;;;;;20.77;12.05;;;;;;;10.91;89.37;98643.19;6183644;23;20369;-66
2022/11/01 20:33:47;;;;;;;20.70;11.57;;;;;;;10.90;90.16;98646.72;6182000;23;20011;-67
2022/11/01 20:36:13;;;;;;;30.63;18.75;;;;;;;10.87;89.47;98646.91;6183431;23;20001;-66
2022/11/01 20:38:38;;;;;;;25.05;15.25;;;;;;;10.83;90.40;98646.25;6182811;23;20005;-65
2022/11/01 20:41:04;;;;;;;29.77;19.40;;;;;;;10.87;90.57;98652.16;6181953;23;20005;-71
2022/11/01 20:43:29;;;;;;;22.10;13.30;;;;;;;10.87;90.25;98657.41;6182210;23;20378;-65
2022/11/01 20:45:55;;;;;;;23.67;13.18;;;;;;;10.86;90.11;98663.59;6183716;23;20068;-65
2022/11/01 20:48:21;;;;;;;20.02;13.50;;;;;;;10.87;89.93;98666.16;6182478;23;20008;-66
2022/11/01 20:50:46;;;;;;;18.75;10.90;;;;;;;10.86;90.14;98668.84;6183574;23;20005;-65
2022/11/01 20:53:13;;;;;;;23.63;13.45;;;;;;;10.88;90.56;98669.59;6181818;23;20012;-66
2022/11/01 20:55:39;;;;;;;20.02;11.40;;;;;;;10.87;90.70;98670.53;6183718;23;20001;-65
2022/11/01 20:58:04;;;;;;;19.73;11.88;;;;;;;10.85;90.18;98668.00;6183348;23;20088;-66
2022/11/01 21:00:30;;;;;;;24.83;13.00;;;;;;;10.85;90.26;98661.94;6183627;23;20001;-65
2022/11/01 21:02:56;;;;;;;23.15;14.20;;;;;;;10.85;90.01;98657.50;6179849;23;20009;-66
2022/11/01 21:05:29;;;;;;;24.73;14.85;;;;;;;10.86;89.69;98655.72;6181484;23;20080;-64
2022/11/01 21:08:10;;;;;;;21.50;13.35;;;;;;;10.87;90.66;98653.03;6182962;23;20005;-65
2022/11/01 21:10:37;;;;;;;23.13;13.70;;;;;;;10.85;89.71;98651.44;6183323;23;20055;-64
2022/11/01 21:13:06;;;;;;;27.80;14.93;;;;;;;10.85;89.98;98656.69;6181863;23;20446;-64
2022/11/01 21:15:36;;;;;;;25.02;12.55;;;;;;;10.84;89.70;98662.84;6182983;23;20008;-67
2022/11/01 21:18:01;;;;;;;23.08;13.32;;;;;;;10.82;89.34;98662.13;6183901;23;20002;-64
